sensor_id;sensor_type;location;lat;lon;timestamp;P1;durP1;ratioP1;P2;durP2;ratioP2
31336;SDS011;22846;42.654;23.314;2023-02-11T00:00:38;15.40;;;11.65;;
31336;SDS011;22846;42.654;23.314;2023-02-11T00:03:04;16.80;;;11.82;;
31336;SDS011;22846;42.654;23.314;2023-02-11T00:05:29;16.52;;;11.45;;
31336;SDS011;22846;42.654;23.314;2023-02-11T00:07:55;14.52;;;11.57;;
31336;SDS011;22846;42.654;23.314;2023-02-11T00:10:21;16.08;;;11.32;;
31336;SDS011;22846;42.654;23.314;2023-02-11T00:12:46;15.35;;;11.23;;
31336;SDS011;22846;42.654;23.314;2023-02-11T00:15:11;15.45;;;11.10;;
31336;SDS011;22846;42.654;23.314;2023-02-11T00:17:37;17.38;;;10.85;;
31336;SDS011;22846;42.654;23.314;2023-02-11T00:20:02;16.13;;;11.10;;
31336;SDS011;22846;42.654;23.314;2023-02-11T00:22:28;16.17;;;10.85;;
31336;SDS011;22846;42.654;23.314;2023-02-11T00:24:53;15.25;;;10.95;;
31336;SDS011;22846;42.654;23.314;2023-02-11T00:27:21;13.43;;;10.95;;
31336;SDS011;22846;42.654;23.314;2023-02-11T00:29:46;16.27;;;11.25;;
31336;SDS011;22846;42.654;23.314;2023-02-11T00:32:12;14.48;;;11.02;;
31336;SDS011;22846;42.654;23.314;2023-02-11T00:34:37;13.75;;;11.02;;
31336;SDS011;22846;42.654;23.314;2023-02-11T00:37:03;17.02;;;10.90;;
31336;SDS011;22846;42.654;23.314;2023-02-11T00:39:29;13.63;;;10.55;;
31336;SDS011;22846;42.654;23.314;2023-02-11T00:41:54;15.75;;;10.93;;
31336;SDS011;22846;42.654;23.314;2023-02-11T00:44:20;12.43;;;9.65;;
31336;SDS011;22846;42.654;23.314;2023-02-11T00:46:45;14.55;;;10.10;;
31336;SDS011;22846;42.654;23.314;2023-02-11T00:49:11;14.43;;;9.88;;
31336;SDS011;22846;42.654;23.314;2023-02-11T00:51:36;13.88;;;10.52;;
31336;SDS011;22846;42.654;23.314;2023-02-11T00:54:02;12.98;;;10.05;;
31336;SDS011;22846;42.654;23.314;2023-02-11T00:56:28;12.23;;;9.77;;
31336;SDS011;22846;42.654;23.314;2023-02-11T00:58:53;12.98;;;9.27;;
31336;SDS011;22846;42.654;23.314;2023-02-11T01:01:19;11.63;;;8.93;;
31336;SDS011;22846;42.654;23.314;2023-02-11T01:03:44;12.65;;;9.43;;
31336;SDS011;22846;42.654;23.314;2023-02-11T01:06:10;14.35;;;9.90;;
31336;SDS011;22846;42.654;23.314;2023-02-11T01:08:36;13.80;;;9.77;;
31336;SDS011;22846;42.654;23.314;2023-02-11T01:11:06;14.55;;;9.40;;
31336;SDS011;22846;42.654;23.314;2023-02-11T01:13:36;13.00;;;9.32;;
31336;SDS011;22846;42.654;23.314;2023-02-11T01:16:02;14.05;;;9.75;;
31336;SDS011;22846;42.654;23.314;2023-02-11T01:18:31;15.63;;;10.07;;
31336;SDS011;22846;42.654;23.314;2023-02-11T01:20:56;13.93;;;9.82;;
31336;SDS011;22846;42.654;23.314;2023-02-11T01:23:22;12.23;;;9.45;;
31336;SDS011;22846;42.654;23.314;2023-02-11T01:25:47;12.55;;;9.07;;
31336;SDS011;22846;42.654;23.314;2023-02-11T01:28:17;11.23;;;8.50;;
31336;SDS011;22846;42.654;23.314;2023-02-11T01:30:45;12.73;;;9.05;;
31336;SDS011;22846;42.654;23.314;2023-02-11T01:33:11;13.45;;;9.23;;
31336;SDS011;22846;42.654;23.314;2023-02-11T01:35:37;13.20;;;8.98;;
31336;SDS011;22846;42.654;23.314;2023-02-11T01:38:04;11.73;;;8.40;;
31336;SDS011;22846;42.654;23.314;2023-02-11T01:40:30;11.93;;;9.13;;
31336;SDS011;22846;42.654;23.314;2023-02-11T01:42:56;12.63;;;8.63;;
31336;SDS011;22846;42.654;23.314;2023-02-11T01:45:41;11.18;;;8.43;;
31336;SDS011;22846;42.654;23.314;2023-02-11T01:48:20;12.07;;;8.82;;
31336;SDS011;22846;42.654;23.314;2023-02-11T01:50:49;12.77;;;8.50;;
31336;SDS011;22846;42.654;23.314;2023-02-11T01:53:21;11.82;;;9.07;;
31336;SDS011;22846;42.654;23.314;2023-02-11T01:56:06;12.40;;;8.95;;
31336;SDS011;22846;42.654;23.314;2023-02-11T01:58:52;11.40;;;8.23;;
31336;SDS011;22846;42.654;23.314;2023-02-11T02:01:22;11.52;;;8.38;;
31336;SDS011;22846;42.654;23.314;2023-02-11T02:03:51;11.18;;;8.63;;
31336;SDS011;22846;42.654;23.314;2023-02-11T02:06:25;10.30;;;7.75;;
31336;SDS011;22846;42.654;23.314;2023-02-11T02:09:08;11.35;;;8.27;;
31336;SDS011;22846;42.654;23.314;2023-02-11T02:11:40;11.57;;;8.50;;
31336;SDS011;22846;42.654;23.314;2023-02-11T02:14:06;12.57;;;8.38;;
31336;SDS011;22846;42.654;23.314;2023-02-11T02:16:32;12.27;;;8.35;;
31336;SDS011;22846;42.654;23.314;2023-02-11T02:38:36;10.63;;;7.63;;
31336;SDS011;22846;42.654;23.314;2023-02-11T02:41:05;9.25;;;7.28;;
31336;SDS011;22846;42.654;23.314;2023-02-11T02:43:35;9.07;;;7.57;;
31336;SDS011;22846;42.654;23.314;2023-02-11T02:48:42;10.43;;;7.50;;
31336;SDS011;22846;42.654;23.314;2023-02-11T02:54:30;9.55;;;7.20;;
31336;SDS011;22846;42.654;23.314;2023-02-11T03:05:22;9.68;;;7.15;;
31336;SDS011;22846;42.654;23.314;2023-02-11T03:08:26;10.13;;;7.75;;
31336;SDS011;22846;42.654;23.314;2023-02-11T03:10:57;8.95;;;7.10;;
31336;SDS011;22846;42.654;23.314;2023-02-11T03:13:29;9.98;;;7.03;;
31336;SDS011;22846;42.654;23.314;2023-02-11T03:15:57;8.68;;;6.60;;
31336;SDS011;22846;42.654;23.314;2023-02-11T03:18:28;9.35;;;7.18;;
31336;SDS011;22846;42.654;23.314;2023-02-11T03:20:55;8.07;;;6.80;;
31336;SDS011;22846;42.654;23.314;2023-02-11T03:26:57;9.68;;;6.90;;
31336;SDS011;22846;42.654;23.314;2023-02-11T03:39:36;10.05;;;6.88;;
31336;SDS011;22846;42.654;23.314;2023-02-11T03:42:05;8.40;;;6.68;;
31336;SDS011;22846;42.654;23.314;2023-02-11T03:44:39;9.93;;;6.95;;
31336;SDS011;22846;42.654;23.314;2023-02-11T03:47:15;8.68;;;6.50;;
31336;SDS011;22846;42.654;23.314;2023-02-11T03:49:45;9.02;;;6.82;;
31336;SDS011;22846;42.654;23.314;2023-02-11T03:52:13;10.38;;;6.97;;
31336;SDS011;22846;42.654;23.314;2023-02-11T03:54:42;8.52;;;6.43;;
31336;SDS011;22846;42.654;23.314;2023-02-11T03:57:10;8.43;;;6.45;;
31336;SDS011;22846;42.654;23.314;2023-02-11T03:59:52;9.05;;;6.75;;
31336;SDS011;22846;42.654;23.314;2023-02-11T04:02:23;8.43;;;6.40;;
31336;SDS011;22846;42.654;23.314;2023-02-11T04:04:51;8.00;;;6.28;;
31336;SDS011;22846;42.654;23.314;2023-02-11T04:07:17;8.73;;;6.72;;
31336;SDS011;22846;42.654;23.314;2023-02-11T04:09:43;8.65;;;6.70;;
31336;SDS011;22846;42.654;23.314;2023-02-11T04:12:08;8.70;;;6.10;;
31336;SDS011;22846;42.654;23.314;2023-02-11T04:14:33;9.02;;;6.55;;
31336;SDS011;22846;42.654;23.314;2023-02-11T04:16:59;10.45;;;6.07;;
31336;SDS011;22846;42.654;23.314;2023-02-11T04:19:24;10.07;;;6.53;;
31336;SDS011;22846;42.654;23.314;2023-02-11T04:21:50;8.52;;;6.45;;
31336;SDS011;22846;42.654;23.314;2023-02-11T04:24:15;7.70;;;6.55;;
31336;SDS011;22846;42.654;23.314;2023-02-11T04:26:40;8.45;;;6.57;;
31336;SDS011;22846;42.654;23.314;2023-02-11T04:29:06;7.93;;;6.20;;
31336;SDS011;22846;42.654;23.314;2023-02-11T04:31:32;7.97;;;6.32;;
31336;SDS011;22846;42.654;23.314;2023-02-11T04:33:57;7.00;;;5.78;;
31336;SDS011;22846;42.654;23.314;2023-02-11T04:36:22;9.57;;;6.90;;
31336;SDS011;22846;42.654;23.314;2023-02-11T04:38:48;7.65;;;5.95;;
31336;SDS011;22846;42.654;23.314;2023-02-11T04:41:13;8.13;;;6.20;;
31336;SDS011;22846;42.654;23.314;2023-02-11T04:43:39;7.28;;;6.25;;
31336;SDS011;22846;42.654;23.314;2023-02-11T04:46:04;8.70;;;5.88;;
31336;SDS011;22846;42.654;23.314;2023-02-11T04:48:30;9.13;;;6.18;;
31336;SDS011;22846;42.654;23.314;2023-02-11T04:50:55;8.45;;;6.65;;
31336;SDS011;22846;42.654;23.314;2023-02-11T04:53:21;8.02;;;6.32;;
31336;SDS011;22846;42.654;23.314;2023-02-11T04:55:49;8.52;;;6.13;;
31336;SDS011;22846;42.654;23.314;2023-02-11T04:58:15;8.25;;;6.18;;
31336;SDS011;22846;42.654;23.314;2023-02-11T05:00:40;7.70;;;5.93;;
31336;SDS011;22846;42.654;23.314;2023-02-11T05:03:06;6.65;;;5.60;;
31336;SDS011;22846;42.654;23.314;2023-02-11T05:05:31;8.60;;;6.32;;
31336;SDS011;22846;42.654;23.314;2023-02-11T05:07:57;8.50;;;6.32;;
31336;SDS011;22846;42.654;23.314;2023-02-11T05:10:22;8.68;;;6.00;;
31336;SDS011;22846;42.654;23.314;2023-02-11T05:12:47;8.00;;;5.72;;
31336;SDS011;22846;42.654;23.314;2023-02-11T05:15:13;7.15;;;6.43;;
31336;SDS011;22846;42.654;23.314;2023-02-11T05:17:39;9.27;;;6.28;;
31336;SDS011;22846;42.654;23.314;2023-02-11T05:20:04;6.85;;;5.25;;
31336;SDS011;22846;42.654;23.314;2023-02-11T05:22:30;8.90;;;6.50;;
31336;SDS011;22846;42.654;23.314;2023-02-11T05:24:56;8.25;;;6.07;;
31336;SDS011;22846;42.654;23.314;2023-02-11T05:27:21;6.80;;;5.72;;
31336;SDS011;22846;42.654;23.314;2023-02-11T05:29:46;7.80;;;5.78;;
31336;SDS011;22846;42.654;23.314;2023-02-11T05:32:12;7.57;;;5.28;;
31336;SDS011;22846;42.654;23.314;2023-02-11T05:34:37;8.00;;;5.82;;
31336;SDS011;22846;42.654;23.314;2023-02-11T05:37:03;8.30;;;6.43;;
31336;SDS011;22846;42.654;23.314;2023-02-11T05:39:28;6.85;;;5.60;;
31336;SDS011;22846;42.654;23.314;2023-02-11T05:41:53;8.10;;;5.82;;
31336;SDS011;22846;42.654;23.314;2023-02-11T05:44:19;7.68;;;5.93;;
31336;SDS011;22846;42.654;23.314;2023-02-11T05:46:45;10.43;;;6.45;;
31336;SDS011;22846;42.654;23.314;2023-02-11T05:49:10;6.65;;;5.35;;
31336;SDS011;22846;42.654;23.314;2023-02-11T05:51:35;7.75;;;5.90;;
31336;SDS011;22846;42.654;23.314;2023-02-11T05:54:01;7.18;;;5.50;;
31336;SDS011;22846;42.654;23.314;2023-02-11T05:56:26;6.90;;;5.50;;
31336;SDS011;22846;42.654;23.314;2023-02-11T05:58:52;7.10;;;6.13;;
31336;SDS011;22846;42.654;23.314;2023-02-11T06:01:17;8.57;;;5.88;;
31336;SDS011;22846;42.654;23.314;2023-02-11T06:03:42;8.10;;;5.78;;
31336;SDS011;22846;42.654;23.314;2023-02-11T06:06:09;7.40;;;5.88;;
31336;SDS011;22846;42.654;23.314;2023-02-11T06:08:36;8.02;;;5.90;;
31336;SDS011;22846;42.654;23.314;2023-02-11T06:11:01;7.15;;;5.78;;
31336;SDS011;22846;42.654;23.314;2023-02-11T06:13:27;8.35;;;5.90;;
31336;SDS011;22846;42.654;23.314;2023-02-11T06:15:58;8.77;;;5.97;;
31336;SDS011;22846;42.654;23.314;2023-02-11T06:18:25;7.60;;;6.05;;
31336;SDS011;22846;42.654;23.314;2023-02-11T06:20:50;7.90;;;6.07;;
31336;SDS011;22846;42.654;23.314;2023-02-11T06:23:16;7.03;;;5.78;;
31336;SDS011;22846;42.654;23.314;2023-02-11T06:25:41;7.88;;;5.82;;
31336;SDS011;22846;42.654;23.314;2023-02-11T06:28:07;7.32;;;5.35;;
31336;SDS011;22846;42.654;23.314;2023-02-11T06:30:35;6.85;;;4.97;;
31336;SDS011;22846;42.654;23.314;2023-02-11T06:33:01;5.10;;;4.25;;
31336;SDS011;22846;42.654;23.314;2023-02-11T06:35:26;6.30;;;4.05;;
31336;SDS011;22846;42.654;23.314;2023-02-11T06:37:52;11.70;;;4.15;;
31336;SDS011;22846;42.654;23.314;2023-02-11T06:40:18;6.15;;;4.45;;
31336;SDS011;22846;42.654;23.314;2023-02-11T06:42:44;8.02;;;4.22;;
31336;SDS011;22846;42.654;23.314;2023-02-11T06:45:10;18.10;;;4.20;;
31336;SDS011;22846;42.654;23.314;2023-02-11T06:47:37;6.50;;;4.35;;
31336;SDS011;22846;42.654;23.314;2023-02-11T06:50:06;12.93;;;3.90;;
31336;SDS011;22846;42.654;23.314;2023-02-11T06:52:33;13.52;;;5.35;;
31336;SDS011;22846;42.654;23.314;2023-02-11T06:54:58;16.58;;;5.53;;
31336;SDS011;22846;42.654;23.314;2023-02-11T06:57:24;50.50;;;28.20;;
31336;SDS011;22846;42.654;23.314;2023-02-11T06:59:49;45.70;;;30.05;;
31336;SDS011;22846;42.654;23.314;2023-02-11T07:02:15;57.20;;;31.98;;
31336;SDS011;22846;42.654;23.314;2023-02-11T07:04:40;51.75;;;28.80;;
31336;SDS011;22846;42.654;23.314;2023-02-11T07:07:06;42.95;;;25.23;;
31336;SDS011;22846;42.654;23.314;2023-02-11T07:09:31;45.05;;;23.35;;
31336;SDS011;22846;42.654;23.314;2023-02-11T07:11:57;40.55;;;21.90;;
31336;SDS011;22846;42.654;23.314;2023-02-11T07:14:22;36.58;;;21.42;;
31336;SDS011;22846;42.654;23.314;2023-02-11T07:16:48;33.83;;;20.02;;
31336;SDS011;22846;42.654;23.314;2023-02-11T07:19:13;35.88;;;18.08;;
31336;SDS011;22846;42.654;23.314;2023-02-11T07:21:38;24.35;;;17.15;;
31336;SDS011;22846;42.654;23.314;2023-02-11T07:24:10;32.60;;;17.70;;
31336;SDS011;22846;42.654;23.314;2023-02-11T07:26:35;31.38;;;17.15;;
31336;SDS011;22846;42.654;23.314;2023-02-11T07:29:01;29.27;;;17.08;;
31336;SDS011;22846;42.654;23.314;2023-02-11T07:31:27;25.05;;;17.80;;
31336;SDS011;22846;42.654;23.314;2023-02-11T07:33:54;27.85;;;15.77;;
31336;SDS011;22846;42.654;23.314;2023-02-11T07:36:21;19.75;;;14.32;;
31336;SDS011;22846;42.654;23.314;2023-02-11T07:38:47;22.50;;;14.20;;
31336;SDS011;22846;42.654;23.314;2023-02-11T07:41:14;23.10;;;13.90;;
31336;SDS011;22846;42.654;23.314;2023-02-11T07:43:41;23.60;;;13.60;;
31336;SDS011;22846;42.654;23.314;2023-02-11T07:46:09;23.17;;;12.80;;
31336;SDS011;22846;42.654;23.314;2023-02-11T07:48:45;23.90;;;12.43;;
31336;SDS011;22846;42.654;23.314;2023-02-11T07:51:12;21.52;;;12.00;;
31336;SDS011;22846;42.654;23.314;2023-02-11T07:53:39;21.63;;;11.88;;
31336;SDS011;22846;42.654;23.314;2023-02-11T07:56:06;17.42;;;11.55;;
31336;SDS011;22846;42.654;23.314;2023-02-11T07:58:32;23.65;;;12.02;;
31336;SDS011;22846;42.654;23.314;2023-02-11T08:01:02;17.73;;;11.27;;
31336;SDS011;22846;42.654;23.314;2023-02-11T08:03:32;18.10;;;10.80;;
31336;SDS011;22846;42.654;23.314;2023-02-11T08:06:02;17.50;;;10.75;;
31336;SDS011;22846;42.654;23.314;2023-02-11T08:10:57;13.63;;;9.35;;
31336;SDS011;22846;42.654;23.314;2023-02-11T08:13:22;16.75;;;10.23;;
31336;SDS011;22846;42.654;23.314;2023-02-11T08:15:48;14.05;;;9.57;;
31336;SDS011;22846;42.654;23.314;2023-02-11T08:18:13;13.85;;;9.10;;
31336;SDS011;22846;42.654;23.314;2023-02-11T08:20:39;16.67;;;9.65;;
31336;SDS011;22846;42.654;23.314;2023-02-11T08:23:05;18.02;;;9.95;;
31336;SDS011;22846;42.654;23.314;2023-02-11T08:25:31;15.75;;;9.35;;
31336;SDS011;22846;42.654;23.314;2023-02-11T08:27:57;17.73;;;9.25;;
31336;SDS011;22846;42.654;23.314;2023-02-11T08:30:23;14.65;;;9.32;;
31336;SDS011;22846;42.654;23.314;2023-02-11T08:32:49;14.55;;;8.75;;
31336;SDS011;22846;42.654;23.314;2023-02-11T08:35:14;11.35;;;8.90;;
31336;SDS011;22846;42.654;23.314;2023-02-11T08:37:40;13.43;;;9.20;;
31336;SDS011;22846;42.654;23.314;2023-02-11T08:40:05;11.63;;;8.40;;
31336;SDS011;22846;42.654;23.314;2023-02-11T08:42:31;15.45;;;8.90;;
31336;SDS011;22846;42.654;23.314;2023-02-11T08:44:57;13.48;;;8.73;;
31336;SDS011;22846;42.654;23.314;2023-02-11T08:47:22;14.80;;;8.40;;
31336;SDS011;22846;42.654;23.314;2023-02-11T08:49:47;13.88;;;8.20;;
31336;SDS011;22846;42.654;23.314;2023-02-11T08:52:13;13.23;;;7.95;;
31336;SDS011;22846;42.654;23.314;2023-02-11T08:54:39;13.05;;;8.23;;
31336;SDS011;22846;42.654;23.314;2023-02-11T08:57:04;11.60;;;7.85;;
31336;SDS011;22846;42.654;23.314;2023-02-11T08:59:30;12.13;;;7.70;;
31336;SDS011;22846;42.654;23.314;2023-02-11T09:01:55;12.50;;;8.10;;
31336;SDS011;22846;42.654;23.314;2023-02-11T09:04:22;16.60;;;8.05;;
31336;SDS011;22846;42.654;23.314;2023-02-11T09:06:47;12.27;;;6.97;;
31336;SDS011;22846;42.654;23.314;2023-02-11T09:09:13;9.02;;;7.00;;
31336;SDS011;22846;42.654;23.314;2023-02-11T09:11:40;9.82;;;7.55;;
31336;SDS011;22846;42.654;23.314;2023-02-11T09:14:10;10.50;;;7.40;;
31336;SDS011;22846;42.654;23.314;2023-02-11T09:19:08;10.02;;;7.13;;
31336;SDS011;22846;42.654;23.314;2023-02-11T09:21:34;11.75;;;6.85;;
31336;SDS011;22846;42.654;23.314;2023-02-11T09:23:59;8.93;;;6.68;;
31336;SDS011;22846;42.654;23.314;2023-02-11T09:26:26;11.18;;;7.20;;
31336;SDS011;22846;42.654;23.314;2023-02-11T09:28:53;8.88;;;6.68;;
31336;SDS011;22846;42.654;23.314;2023-02-11T09:31:20;8.77;;;6.70;;
31336;SDS011;22846;42.654;23.314;2023-02-11T09:33:47;9.43;;;6.55;;
31336;SDS011;22846;42.654;23.314;2023-02-11T09:36:15;8.70;;;6.45;;
31336;SDS011;22846;42.654;23.314;2023-02-11T09:38:45;8.50;;;6.63;;
31336;SDS011;22846;42.654;23.314;2023-02-11T09:43:50;10.32;;;6.65;;
31336;SDS011;22846;42.654;23.314;2023-02-11T09:46:33;8.38;;;6.40;;
31336;SDS011;22846;42.654;23.314;2023-02-11T09:49:01;9.13;;;6.45;;
31336;SDS011;22846;42.654;23.314;2023-02-11T09:51:37;8.70;;;6.50;;
31336;SDS011;22846;42.654;23.314;2023-02-11T09:54:12;8.02;;;6.10;;
31336;SDS011;22846;42.654;23.314;2023-02-11T09:56:59;8.25;;;5.90;;
31336;SDS011;22846;42.654;23.314;2023-02-11T09:59:25;7.85;;;5.90;;
31336;SDS011;22846;42.654;23.314;2023-02-11T10:01:56;8.73;;;5.80;;
31336;SDS011;22846;42.654;23.314;2023-02-11T10:04:34;9.45;;;6.05;;
31336;SDS011;22846;42.654;23.314;2023-02-11T10:13:21;9.10;;;6.05;;
31336;SDS011;22846;42.654;23.314;2023-02-11T10:16:10;8.82;;;5.43;;
31336;SDS011;22846;42.654;23.314;2023-02-11T10:23:41;8.05;;;6.03;;
31336;SDS011;22846;42.654;23.314;2023-02-11T10:26:11;6.55;;;5.00;;
31336;SDS011;22846;42.654;23.314;2023-02-11T10:28:41;7.05;;;5.35;;
31336;SDS011;22846;42.654;23.314;2023-02-11T10:36:06;7.88;;;5.57;;
31336;SDS011;22846;42.654;23.314;2023-02-11T10:38:35;7.65;;;5.47;;
31336;SDS011;22846;42.654;23.314;2023-02-11T10:41:01;8.00;;;5.32;;
31336;SDS011;22846;42.654;23.314;2023-02-11T10:43:27;8.15;;;5.45;;
31336;SDS011;22846;42.654;23.314;2023-02-11T10:45:55;7.80;;;5.35;;
31336;SDS011;22846;42.654;23.314;2023-02-11T10:51:13;6.88;;;4.80;;
31336;SDS011;22846;42.654;23.314;2023-02-11T10:54:11;7.35;;;5.10;;
31336;SDS011;22846;42.654;23.314;2023-02-11T10:56:46;6.65;;;4.80;;
31336;SDS011;22846;42.654;23.314;2023-02-11T11:01:47;6.97;;;4.90;;
31336;SDS011;22846;42.654;23.314;2023-02-11T11:06:53;6.60;;;4.75;;
31336;SDS011;22846;42.654;23.314;2023-02-11T11:09:27;5.32;;;4.38;;
31336;SDS011;22846;42.654;23.314;2023-02-11T11:11:56;6.72;;;5.05;;
31336;SDS011;22846;42.654;23.314;2023-02-11T11:14:22;6.40;;;4.45;;
31336;SDS011;22846;42.654;23.314;2023-02-11T11:16:53;9.80;;;5.13;;
31336;SDS011;22846;42.654;23.314;2023-02-11T11:19:23;7.43;;;5.25;;
31336;SDS011;22846;42.654;23.314;2023-02-11T11:21:53;9.05;;;4.57;;
31336;SDS011;22846;42.654;23.314;2023-02-11T11:26:56;9.18;;;4.50;;
31336;SDS011;22846;42.654;23.314;2023-02-11T11:29:27;8.43;;;5.00;;
31336;SDS011;22846;42.654;23.314;2023-02-11T11:31:58;7.20;;;4.57;;
31336;SDS011;22846;42.654;23.314;2023-02-11T11:34:34;7.78;;;4.93;;
31336;SDS011;22846;42.654;23.314;2023-02-11T11:37:09;10.10;;;4.60;;
31336;SDS011;22846;42.654;23.314;2023-02-11T11:39:35;6.95;;;4.65;;
31336;SDS011;22846;42.654;23.314;2023-02-11T11:42:04;6.20;;;4.50;;
31336;SDS011;22846;42.654;23.314;2023-02-11T11:44:58;10.77;;;4.90;;
31336;SDS011;22846;42.654;23.314;2023-02-11T11:50:29;6.05;;;4.00;;
31336;SDS011;22846;42.654;23.314;2023-02-11T11:53:00;7.82;;;3.90;;
31336;SDS011;22846;42.654;23.314;2023-02-11T11:58:12;6.00;;;4.20;;
31336;SDS011;22846;42.654;23.314;2023-02-11T12:00:47;9.05;;;5.50;;
31336;SDS011;22846;42.654;23.314;2023-02-11T12:06:18;8.18;;;5.22;;
31336;SDS011;22846;42.654;23.314;2023-02-11T12:27:14;10.45;;;6.25;;
31336;SDS011;22846;42.654;23.314;2023-02-11T12:34:53;8.07;;;5.75;;
31336;SDS011;22846;42.654;23.314;2023-02-11T12:38:16;8.50;;;6.40;;
31336;SDS011;22846;42.654;23.314;2023-02-11T12:44:08;6.13;;;4.90;;
31336;SDS011;22846;42.654;23.314;2023-02-11T12:46:49;7.13;;;5.03;;
31336;SDS011;22846;42.654;23.314;2023-02-11T12:55:24;7.55;;;5.15;;
31336;SDS011;22846;42.654;23.314;2023-02-11T12:57:52;7.45;;;5.20;;
31336;SDS011;22846;42.654;23.314;2023-02-11T13:00:22;7.47;;;5.03;;
31336;SDS011;22846;42.654;23.314;2023-02-11T13:03:10;8.85;;;4.90;;
31336;SDS011;22846;42.654;23.314;2023-02-11T13:08:13;6.38;;;5.15;;
31336;SDS011;22846;42.654;23.314;2023-02-11T13:10:45;7.32;;;4.50;;
31336;SDS011;22846;42.654;23.314;2023-02-11T13:13:20;6.22;;;4.35;;
31336;SDS011;22846;42.654;23.314;2023-02-11T13:16:03;6.53;;;4.90;;
31336;SDS011;22846;42.654;23.314;2023-02-11T13:21:52;6.23;;;4.60;;
31336;SDS011;22846;42.654;23.314;2023-02-11T13:38:05;11.00;;;5.10;;
31336;SDS011;22846;42.654;23.314;2023-02-11T13:40:43;14.00;;;4.88;;
31336;SDS011;22846;42.654;23.314;2023-02-11T13:43:22;15.07;;;5.00;;
31336;SDS011;22846;42.654;23.314;2023-02-11T13:45:50;14.43;;;4.97;;
31336;SDS011;22846;42.654;23.314;2023-02-11T13:48:30;11.98;;;5.38;;
31336;SDS011;22846;42.654;23.314;2023-02-11T13:51:07;11.63;;;4.78;;
31336;SDS011;22846;42.654;23.314;2023-02-11T13:53:50;9.00;;;5.53;;
31336;SDS011;22846;42.654;23.314;2023-02-11T13:56:29;11.45;;;5.50;;
31336;SDS011;22846;42.654;23.314;2023-02-11T13:59:01;12.90;;;6.20;;
31336;SDS011;22846;42.654;23.314;2023-02-11T14:04:30;12.32;;;6.10;;
31336;SDS011;22846;42.654;23.314;2023-02-11T14:07:31;9.70;;;5.32;;
31336;SDS011;22846;42.654;23.314;2023-02-11T14:21:16;23.23;;;10.48;;
31336;SDS011;22846;42.654;23.314;2023-02-11T14:23:45;29.33;;;8.88;;
31336;SDS011;22846;42.654;23.314;2023-02-11T14:28:55;18.40;;;7.07;;
31336;SDS011;22846;42.654;23.314;2023-02-11T14:32:08;26.80;;;9.13;;
31336;SDS011;22846;42.654;23.314;2023-02-11T14:36:53;19.70;;;7.47;;
31336;SDS011;22846;42.654;23.314;2023-02-11T14:42:28;12.88;;;6.72;;
31336;SDS011;22846;42.654;23.314;2023-02-11T14:44:55;11.60;;;6.43;;
31336;SDS011;22846;42.654;23.314;2023-02-11T14:47:47;22.47;;;10.50;;
31336;SDS011;22846;42.654;23.314;2023-02-11T14:51:18;16.52;;;8.23;;
31336;SDS011;22846;42.654;23.314;2023-02-11T14:53:23;11.93;;;7.45;;
31336;SDS011;22846;42.654;23.314;2023-02-11T14:55:50;13.25;;;7.53;;
31336;SDS011;22846;42.654;23.314;2023-02-11T15:03:25;12.80;;;7.45;;
31336;SDS011;22846;42.654;23.314;2023-02-11T15:05:57;16.40;;;11.43;;
31336;SDS011;22846;42.654;23.314;2023-02-11T15:08:31;32.17;;;21.55;;
31336;SDS011;22846;42.654;23.314;2023-02-11T15:11:01;48.55;;;34.08;;
31336;SDS011;22846;42.654;23.314;2023-02-11T15:13:31;48.05;;;34.03;;
31336;SDS011;22846;42.654;23.314;2023-02-11T15:15:58;43.20;;;31.50;;
31336;SDS011;22846;42.654;23.314;2023-02-11T15:18:33;40.50;;;29.02;;
31336;SDS011;22846;42.654;23.314;2023-02-11T15:21:03;42.38;;;26.88;;
31336;SDS011;22846;42.654;23.314;2023-02-11T15:23:29;32.75;;;23.85;;
31336;SDS011;22846;42.654;23.314;2023-02-11T15:25:55;39.22;;;25.17;;
31336;SDS011;22846;42.654;23.314;2023-02-11T15:28:22;34.35;;;23.40;;
31336;SDS011;22846;42.654;23.314;2023-02-11T15:30:57;34.70;;;23.00;;
31336;SDS011;22846;42.654;23.314;2023-02-11T15:33:27;32.05;;;21.92;;
31336;SDS011;22846;42.654;23.314;2023-02-11T15:35:59;32.45;;;21.42;;
31336;SDS011;22846;42.654;23.314;2023-02-11T15:38:26;37.70;;;21.92;;
31336;SDS011;22846;42.654;23.314;2023-02-11T15:41:02;31.35;;;19.77;;
31336;SDS011;22846;42.654;23.314;2023-02-11T15:43:47;28.85;;;18.98;;
31336;SDS011;22846;42.654;23.314;2023-02-11T15:46:21;27.98;;;19.02;;
31336;SDS011;22846;42.654;23.314;2023-02-11T15:48:51;28.90;;;18.00;;
31336;SDS011;22846;42.654;23.314;2023-02-11T15:54:00;23.58;;;16.20;;
31336;SDS011;22846;42.654;23.314;2023-02-11T15:58:58;23.95;;;14.93;;
31336;SDS011;22846;42.654;23.314;2023-02-11T16:01:33;23.17;;;14.10;;
31336;SDS011;22846;42.654;23.314;2023-02-11T16:04:01;20.30;;;13.70;;
31336;SDS011;22846;42.654;23.314;2023-02-11T16:06:40;22.40;;;14.50;;
31336;SDS011;22846;42.654;23.314;2023-02-11T16:11:33;23.52;;;15.20;;
31336;SDS011;22846;42.654;23.314;2023-02-11T16:14:21;47.08;;;27.67;;
31336;SDS011;22846;42.654;23.314;2023-02-11T16:17:38;51.88;;;35.10;;
31336;SDS011;22846;42.654;23.314;2023-02-11T16:19:42;46.55;;;31.70;;
31336;SDS011;22846;42.654;23.314;2023-02-11T16:22:10;47.80;;;31.73;;
31336;SDS011;22846;42.654;23.314;2023-02-11T16:24:41;42.25;;;30.30;;
31336;SDS011;22846;42.654;23.314;2023-02-11T16:27:27;42.20;;;28.83;;
31336;SDS011;22846;42.654;23.314;2023-02-11T16:29:58;40.60;;;26.55;;
31336;SDS011;22846;42.654;23.314;2023-02-11T16:32:24;40.30;;;25.23;;
31336;SDS011;22846;42.654;23.314;2023-02-11T16:34:52;25.67;;;19.58;;
31336;SDS011;22846;42.654;23.314;2023-02-11T16:37:19;21.60;;;15.82;;
31336;SDS011;22846;42.654;23.314;2023-02-11T16:39:45;24.25;;;15.65;;
31336;SDS011;22846;42.654;23.314;2023-02-11T16:42:10;26.33;;;17.27;;
31336;SDS011;22846;42.654;23.314;2023-02-11T16:44:37;28.55;;;16.30;;
31336;SDS011;22846;42.654;23.314;2023-02-11T16:47:03;26.75;;;15.80;;
31336;SDS011;22846;42.654;23.314;2023-02-11T16:49:36;25.58;;;16.15;;
31336;SDS011;22846;42.654;23.314;2023-02-11T16:52:05;25.30;;;15.53;;
31336;SDS011;22846;42.654;23.314;2023-02-11T16:54:32;47.55;;;33.60;;
31336;SDS011;22846;42.654;23.314;2023-02-11T16:56:58;63.67;;;45.47;;
31336;SDS011;22846;42.654;23.314;2023-02-11T16:59:25;79.50;;;55.35;;
31336;SDS011;22846;42.654;23.314;2023-02-11T17:01:51;62.95;;;43.70;;
31336;SDS011;22846;42.654;23.314;2023-02-11T17:04:18;61.55;;;43.92;;
31336;SDS011;22846;42.654;23.314;2023-02-11T17:06:52;72.18;;;52.05;;
31336;SDS011;22846;42.654;23.314;2023-02-11T17:09:18;75.35;;;48.75;;
31336;SDS011;22846;42.654;23.314;2023-02-11T17:11:48;50.55;;;33.30;;
31336;SDS011;22846;42.654;23.314;2023-02-11T17:14:14;51.38;;;35.67;;
31336;SDS011;22846;42.654;23.314;2023-02-11T17:16:39;49.28;;;34.90;;
31336;SDS011;22846;42.654;23.314;2023-02-11T17:19:05;49.88;;;34.08;;
31336;SDS011;22846;42.654;23.314;2023-02-11T17:21:31;52.90;;;33.15;;
31336;SDS011;22846;42.654;23.314;2023-02-11T17:23:58;42.75;;;28.35;;
31336;SDS011;22846;42.654;23.314;2023-02-11T17:26:23;27.67;;;18.40;;
31336;SDS011;22846;42.654;23.314;2023-02-11T17:28:49;37.78;;;21.77;;
31336;SDS011;22846;42.654;23.314;2023-02-11T17:31:14;38.30;;;21.40;;
31336;SDS011;22846;42.654;23.314;2023-02-11T17:33:40;37.08;;;17.30;;